Terminal Aerodrome Forecast
Issued by NWS

Home | Current Version | Previous Version | Text Only | Print | Product List | Glossary On
Versions: 1 2 3 4 5 6 7 8 9 10 11 12 13 14 15 16 17 18 19 20 21 22 23 24 25 26
000
FTUS41 KCAR 010100 AAA
TAFBHB
TAF AMD
KBHB 010141Z 0102/0124 18006KT P6SM OVC008
     FM010300 18006KT 3SM BR OVC006
     FM010600 18004KT 1/2SM FG OVC002
     FM011200 18006KT 3SM BR SCT004
     FM011300 18008KT P6SM SCT250
     FM011600 18010KT P6SM SCT050
      AMD LTD TO CLD VIS AND WIND=

USA.gov is the U.S. government's official web portal to all federal, state and local government web resources and services.